createdAt,value
2023-04-23T00:02:08.230Z,8.44
2023-04-23T00:04:38.197Z,8.45
2023-04-23T00:07:05.797Z,8.44
2023-04-23T00:09:32.927Z,8.48
2023-04-23T00:12:01.052Z,8.47
2023-04-23T00:14:28.255Z,8.50
2023-04-23T00:16:55.142Z,8.62
2023-04-23T00:19:21.710Z,8.61
2023-04-23T00:21:48.304Z,8.59
2023-04-23T00:24:14.950Z,8.55
2023-04-23T00:26:41.567Z,8.60
2023-04-23T00:29:08.441Z,8.63
2023-04-23T00:31:35.145Z,8.62
2023-04-23T00:34:01.793Z,8.59
2023-04-23T00:36:28.441Z,8.59
2023-04-23T00:38:55.090Z,8.58
2023-04-23T00:41:22.219Z,8.60
2023-04-23T00:43:49.693Z,8.64
2023-04-23T00:46:17.394Z,8.67
2023-04-23T00:48:46.447Z,8.49
2023-04-23T00:51:13.247Z,8.64
2023-04-23T00:53:39.889Z,8.62
2023-04-23T00:56:06.997Z,8.71
2023-04-23T00:58:34.214Z,8.72
2023-04-23T01:01:02.822Z,8.66
2023-04-23T01:03:29.951Z,8.61
2023-04-23T01:05:56.865Z,8.59
2023-04-23T01:08:25.142Z,8.56
2023-04-23T01:10:53.635Z,8.62
2023-04-23T01:13:20.553Z,8.59
2023-04-23T01:15:47.160Z,8.55
2023-04-23T01:18:14.787Z,8.52
2023-04-23T01:20:41.489Z,8.56
2023-04-23T01:23:08.169Z,8.62
2023-04-23T01:25:34.928Z,8.59
2023-04-23T01:28:02.123Z,8.55
2023-04-23T01:30:29.300Z,8.59
2023-04-23T01:32:56.676Z,8.54
2023-04-23T01:35:24.446Z,8.56
2023-04-23T01:37:52.637Z,8.61
2023-04-23T01:40:22.034Z,8.64
2023-04-23T01:42:49.231Z,8.62
2023-04-23T01:45:19.627Z,8.61
2023-04-23T01:47:47.452Z,8.66
2023-04-23T01:50:14.646Z,8.71
2023-04-23T01:52:42.176Z,8.66
2023-04-23T01:55:09.616Z,8.64
2023-04-23T01:57:36.815Z,8.61
2023-04-23T02:00:11.705Z,8.67
2023-04-23T02:02:40.220Z,8.61
2023-04-23T02:05:18.856Z,8.62
2023-04-23T02:07:47.528Z,8.62
2023-04-23T02:10:14.806Z,8.63
2023-04-23T02:12:41.773Z,8.56
2023-04-23T02:15:09.936Z,8.62
2023-04-23T02:17:36.740Z,8.62
2023-04-23T02:20:03.928Z,8.62
2023-04-23T02:22:31.685Z,8.61
2023-04-23T02:24:58.702Z,8.61
2023-04-23T02:27:25.854Z,8.66
2023-04-23T02:29:53.495Z,8.63
2023-04-23T02:32:20.238Z,8.66
2023-04-23T02:34:46.835Z,8.63
2023-04-23T02:37:13.465Z,8.64
2023-04-23T02:39:40.042Z,8.68
2023-04-23T02:42:07.262Z,8.70
2023-04-23T02:44:33.898Z,8.74
2023-04-23T02:47:00.712Z,8.75
2023-04-23T02:49:27.426Z,8.73
2023-04-23T02:51:54.430Z,8.71
2023-04-23T02:54:21.067Z,8.65
2023-04-23T02:56:47.800Z,8.67
2023-04-23T02:59:14.396Z,8.62
2023-04-23T03:01:41.485Z,8.63
2023-04-23T03:04:08.392Z,8.56
2023-04-23T03:06:35.830Z,8.56
2023-04-23T03:09:02.545Z,8.57
2023-04-23T03:11:29.252Z,8.56
2023-04-23T03:13:56.118Z,8.56
2023-04-23T03:16:22.801Z,8.61
2023-04-23T03:18:49.396Z,8.61
2023-04-23T03:21:16.131Z,8.58
2023-04-23T03:23:42.772Z,8.50
2023-04-23T03:26:09.377Z,8.39
2023-04-23T03:28:36.110Z,8.41
2023-04-23T03:31:02.784Z,8.44
2023-04-23T03:33:29.427Z,8.46
2023-04-23T03:35:56.046Z,8.45
2023-04-23T03:38:22.680Z,8.38
2023-04-23T03:40:49.462Z,8.42
2023-04-23T03:43:16.082Z,8.38
2023-04-23T03:45:42.701Z,8.42
2023-04-23T03:48:09.269Z,8.46
2023-04-23T03:50:38.976Z,8.44
2023-04-23T03:53:08.162Z,8.42
2023-04-23T03:55:34.869Z,8.49
2023-04-23T03:58:03.167Z,8.50
2023-04-23T04:00:30.182Z,8.45
2023-04-23T04:02:57.021Z,8.40
2023-04-23T04:05:23.861Z,8.35
2023-04-23T04:07:50.497Z,8.40
2023-04-23T04:10:17.256Z,8.27
2023-04-23T04:12:45.577Z,8.37
2023-04-23T04:15:12.642Z,8.39
2023-04-23T04:17:39.620Z,8.35
2023-04-23T04:20:11.224Z,8.30
2023-04-23T04:22:38.161Z,8.26
2023-04-23T04:25:05.404Z,8.21
2023-04-23T04:27:34.884Z,8.28
2023-04-23T04:30:02.342Z,8.26
2023-04-23T04:32:28.966Z,8.25
2023-04-23T04:34:55.663Z,8.28
2023-04-23T04:37:22.322Z,8.24
2023-04-23T04:39:49.182Z,8.24
2023-04-23T04:42:15.953Z,8.26
2023-04-23T04:44:43.983Z,8.25
2023-04-23T04:47:10.932Z,8.24
2023-04-23T04:49:38.350Z,8.22
2023-04-23T04:52:05.009Z,8.20
2023-04-23T04:54:31.728Z,8.23
2023-04-23T04:56:58.386Z,8.21
2023-04-23T04:59:25.008Z,8.25
2023-04-23T05:01:51.751Z,8.26
2023-04-23T05:04:18.512Z,8.26
2023-04-23T05:06:45.356Z,8.22
2023-04-23T05:09:12.100Z,8.24
2023-04-23T05:11:39.617Z,8.31
2023-04-23T05:14:06.234Z,8.28
2023-04-23T05:16:33.182Z,8.31
2023-04-23T05:18:59.927Z,8.26
2023-04-23T05:21:27.633Z,8.29
2023-04-23T05:23:54.987Z,8.24
2023-04-23T05:26:21.623Z,8.24
2023-04-23T05:28:48.268Z,8.25
2023-04-23T05:31:15.174Z,8.23
2023-04-23T05:33:49.809Z,8.26
2023-04-23T05:36:17.642Z,8.26
2023-04-23T05:38:44.227Z,8.25
2023-04-23T05:41:11.047Z,8.30
2023-04-23T05:43:37.683Z,8.26
2023-04-23T05:46:06.524Z,8.25
2023-04-23T05:48:34.019Z,8.20
2023-04-23T05:51:00.745Z,8.18
2023-04-23T05:53:28.246Z,8.14
2023-04-23T05:55:55.049Z,8.14
2023-04-23T05:58:21.775Z,8.23
2023-04-23T06:00:48.481Z,8.12
2023-04-23T06:03:15.235Z,8.14
2023-04-23T06:05:43.296Z,8.13
2023-04-23T06:08:09.980Z,8.14
2023-04-23T06:10:36.725Z,8.11
2023-04-23T06:13:03.450Z,8.16
2023-04-23T06:15:30.069Z,8.17
2023-04-23T06:17:56.911Z,8.17
2023-04-23T06:20:24.347Z,8.13
2023-04-23T06:22:51.225Z,8.19
2023-04-23T06:25:18.127Z,8.16
2023-04-23T06:27:44.722Z,8.23
2023-04-23T06:30:11.752Z,8.25
2023-04-23T06:32:38.367Z,8.20
2023-04-23T06:35:06.251Z,8.21
2023-04-23T06:37:33.146Z,8.19
2023-04-23T06:40:00.067Z,8.17
2023-04-23T06:42:26.773Z,8.18
2023-04-23T06:44:53.475Z,8.19
2023-04-23T06:47:20.241Z,8.07
2023-04-23T06:49:46.954Z,8.16
2023-04-23T06:52:13.610Z,8.18
2023-04-23T06:54:40.511Z,8.30
2023-04-23T06:57:07.378Z,8.37
2023-04-23T06:59:34.056Z,8.43
2023-04-23T07:02:00.898Z,8.36
2023-04-23T07:04:27.540Z,8.34
2023-04-23T07:06:54.213Z,8.41
2023-04-23T07:09:20.970Z,8.48
2023-04-23T07:11:47.660Z,8.52
2023-04-23T07:14:14.772Z,8.52
2023-04-23T07:16:41.401Z,8.61
2023-04-23T07:19:08.104Z,8.69
2023-04-23T07:21:34.862Z,8.72
2023-04-23T07:24:07.184Z,8.79
2023-04-23T07:26:35.046Z,8.89
2023-04-23T07:29:02.234Z,8.91
2023-04-23T07:31:28.896Z,8.88
2023-04-23T07:33:56.287Z,8.91
2023-04-23T07:36:23.119Z,8.90
2023-04-23T07:38:51.009Z,8.81
2023-04-23T07:41:17.916Z,8.98
2023-04-23T07:43:44.759Z,9.05
2023-04-23T07:46:11.525Z,9.14
2023-04-23T07:48:38.196Z,9.30
2023-04-23T07:51:06.478Z,9.43
2023-04-23T07:53:33.245Z,9.59
2023-04-23T07:56:00.297Z,9.61
2023-04-23T07:58:27.206Z,9.80
2023-04-23T08:00:53.911Z,9.79
2023-04-23T08:03:21.028Z,9.74
2023-04-23T08:05:48.055Z,9.82
2023-04-23T08:08:14.865Z,9.83
2023-04-23T08:10:41.864Z,9.84
2023-04-23T08:13:08.868Z,9.80
2023-04-23T08:15:35.887Z,9.90
2023-04-23T08:18:04.381Z,9.84
2023-04-23T08:20:32.441Z,9.99
2023-04-23T08:22:59.369Z,10.05
2023-04-23T08:25:26.660Z,10.09
2023-04-23T08:27:53.649Z,9.96
2023-04-23T08:30:20.378Z,10.12
2023-04-23T08:32:51.034Z,10.08
2023-04-23T08:35:17.945Z,9.99
2023-04-23T08:37:44.662Z,10.09
2023-04-23T08:40:12.002Z,10.23
2023-04-23T08:42:53.084Z,10.24
2023-04-23T08:45:20.025Z,10.34
2023-04-23T08:47:46.746Z,10.30
2023-04-23T08:50:17.907Z,10.34
2023-04-23T08:52:52.768Z,10.36
2023-04-23T08:55:21.348Z,10.33
2023-04-23T08:57:48.862Z,10.43
2023-04-23T09:00:18.083Z,10.47
2023-04-23T09:02:47.146Z,10.35
2023-04-23T09:05:14.686Z,10.43
2023-04-23T09:07:42.341Z,10.44
2023-04-23T09:10:11.661Z,10.51
2023-04-23T09:12:41.018Z,10.50
2023-04-23T09:15:11.011Z,10.55
2023-04-23T09:17:46.792Z,10.75
2023-04-23T09:20:14.875Z,10.74
2023-04-23T09:22:44.351Z,10.81
2023-04-23T09:25:14.824Z,11.04
2023-04-23T09:27:41.824Z,11.15
2023-04-23T09:30:10.936Z,11.35
2023-04-23T09:32:42.523Z,11.21
2023-04-23T09:35:12.370Z,11.43
2023-04-23T09:37:42.886Z,11.53
2023-04-23T09:40:10.583Z,11.51
2023-04-23T09:42:43.800Z,11.59
2023-04-23T09:45:13.989Z,11.57
2023-04-23T09:47:59.212Z,11.76
2023-04-23T09:50:39.197Z,11.69
2023-04-23T09:53:07.679Z,11.76
2023-04-23T09:55:39.461Z,11.82
2023-04-23T09:58:11.348Z,11.83
2023-04-23T10:00:40.047Z,11.55
2023-04-23T10:03:08.961Z,11.53
2023-04-23T10:08:14.027Z,11.45
2023-04-23T10:10:54.969Z,11.45
2023-04-23T10:13:24.356Z,11.49
2023-04-23T10:15:52.422Z,11.22
2023-04-23T10:18:20.670Z,11.28
2023-04-23T10:20:49.897Z,11.18
2023-04-23T10:23:20.175Z,10.90
2023-04-23T10:25:48.170Z,10.87
2023-04-23T10:28:21.930Z,10.98
2023-04-23T10:30:49.919Z,11.01
2023-04-23T10:33:28.986Z,10.88
2023-04-23T10:35:57.884Z,10.85
2023-04-23T10:38:28.354Z,10.74
2023-04-23T10:40:59.556Z,10.58
2023-04-23T10:43:26.320Z,10.50
2023-04-23T10:45:54.343Z,10.68
2023-04-23T10:48:21.582Z,10.61
2023-04-23T10:53:32.213Z,10.87
2023-04-23T10:56:07.209Z,11.04
2023-04-23T10:58:50.726Z,11.20
2023-04-23T11:01:22.621Z,11.35
2023-04-23T11:03:52.170Z,11.37
2023-04-23T11:06:58.215Z,11.53
2023-04-23T11:09:29.446Z,11.61
2023-04-23T11:11:57.864Z,11.83
2023-04-23T11:14:57.546Z,11.92
2023-04-23T11:17:45.080Z,12.03
2023-04-23T11:20:21.822Z,11.97
2023-04-23T11:22:50.758Z,12.12
2023-04-23T11:25:25.593Z,12.01
2023-04-23T11:27:53.617Z,12.06
2023-04-23T11:30:22.806Z,11.84
2023-04-23T11:32:51.325Z,11.58
2023-04-23T11:35:20.146Z,11.85
2023-04-23T11:37:48.400Z,11.88
2023-04-23T11:40:19.522Z,11.76
2023-04-23T11:42:51.070Z,12.08
2023-04-23T11:45:26.432Z,12.14
2023-04-23T11:47:58.396Z,12.16
2023-04-23T11:50:33.775Z,12.35
2023-04-23T11:53:09.050Z,12.51
2023-04-23T11:55:35.866Z,12.53
2023-04-23T11:58:03.548Z,12.33
2023-04-23T12:00:30.425Z,12.78
2023-04-23T12:03:01.724Z,12.90
2023-04-23T12:05:30.326Z,12.86
2023-04-23T12:08:16.357Z,12.97
2023-04-23T12:10:52.755Z,12.97
2023-04-23T12:13:21.489Z,12.91
2023-04-23T12:15:53.328Z,13.26
2023-04-23T12:18:19.989Z,13.45
2023-04-23T12:20:46.684Z,13.48
2023-04-23T12:23:13.381Z,13.27
2023-04-23T12:25:40.922Z,12.62
2023-04-23T12:28:07.623Z,12.65
2023-04-23T12:30:35.497Z,12.88
2023-04-23T12:33:03.038Z,12.87
2023-04-23T12:35:43.012Z,13.06
2023-04-23T12:38:25.144Z,13.03
2023-04-23T12:40:53.349Z,13.01
2023-04-23T12:43:20.153Z,12.79
2023-04-23T12:45:46.825Z,12.92
2023-04-23T12:48:14.249Z,12.78
2023-04-23T12:50:41.159Z,12.75
2023-04-23T12:53:08.124Z,12.61
2023-04-23T12:55:34.773Z,12.26
2023-04-23T12:58:01.894Z,12.09
2023-04-23T13:00:28.527Z,12.27
2023-04-23T13:02:56.257Z,12.13
2023-04-23T13:05:23.830Z,12.28
2023-04-23T13:07:50.731Z,12.28
2023-04-23T13:10:17.432Z,12.16
2023-04-23T13:12:44.064Z,12.02
2023-04-23T13:15:12.895Z,12.01
2023-04-23T13:17:39.706Z,12.10
2023-04-23T13:20:07.272Z,12.22
2023-04-23T13:22:34.045Z,12.17
2023-04-23T13:25:00.827Z,12.11
2023-04-23T13:27:29.769Z,12.44
2023-04-23T13:29:56.583Z,12.42
2023-04-23T13:32:28.774Z,12.43
2023-04-23T13:34:55.762Z,12.30
2023-04-23T13:37:24.002Z,12.24
2023-04-23T13:39:50.658Z,12.21
2023-04-23T13:42:17.250Z,12.07
2023-04-23T13:44:43.889Z,12.21
2023-04-23T13:47:10.554Z,12.26
2023-04-23T13:49:37.177Z,12.02
2023-04-23T13:52:06.833Z,11.97
2023-04-23T13:54:33.945Z,12.17
2023-04-23T13:57:01.204Z,12.06
2023-04-23T13:59:27.838Z,11.68
2023-04-23T14:01:54.420Z,11.69
2023-04-23T14:04:24.132Z,11.65
2023-04-23T14:06:50.991Z,11.48
2023-04-23T14:09:19.045Z,11.50
2023-04-23T14:11:45.885Z,11.32
2023-04-23T14:14:12.705Z,11.22
2023-04-23T14:16:39.597Z,11.12
2023-04-23T14:19:06.482Z,10.86
2023-04-23T14:21:35.778Z,10.86
2023-04-23T14:24:09.767Z,10.86
2023-04-23T14:26:48.043Z,10.94
2023-04-23T14:29:40.233Z,10.87
2023-04-23T14:32:07.664Z,10.76
2023-04-23T14:34:37.125Z,10.87
2023-04-23T14:37:04.273Z,10.76
2023-04-23T14:39:31.114Z,10.92
2023-04-23T14:41:57.793Z,10.96
2023-04-23T14:44:26.427Z,10.88
2023-04-23T14:46:53.369Z,10.73
2023-04-23T14:49:21.079Z,10.44
2023-04-23T14:51:54.534Z,10.45
2023-04-23T14:54:22.471Z,10.49
2023-04-23T14:56:50.566Z,10.56
2023-04-23T14:59:17.539Z,10.42
2023-04-23T15:01:44.491Z,10.34
2023-04-23T15:04:11.846Z,10.32
2023-04-23T15:06:40.557Z,10.19
2023-04-23T15:09:07.171Z,10.13
2023-04-23T15:11:33.894Z,10.09
2023-04-23T15:14:09.293Z,10.19
2023-04-23T15:19:07.579Z,10.19
2023-04-23T15:21:34.349Z,10.12
2023-04-23T15:24:01.765Z,10.21
2023-04-23T15:26:28.459Z,10.25
2023-04-23T15:28:55.686Z,10.26
2023-04-23T15:31:22.313Z,10.35
2023-04-23T15:33:49.001Z,10.33
2023-04-23T15:36:15.670Z,10.44
2023-04-23T15:38:42.394Z,10.35
2023-04-23T15:41:10.042Z,10.28
2023-04-23T15:43:36.750Z,10.20
2023-04-23T15:46:03.443Z,10.16
2023-04-23T15:48:30.550Z,10.18
2023-04-23T15:50:57.401Z,10.28
2023-04-23T15:53:24.385Z,10.31
2023-04-23T15:55:51.644Z,10.25
2023-04-23T15:58:19.364Z,10.20
2023-04-23T16:00:46.476Z,10.27
2023-04-23T16:03:15.243Z,10.32
2023-04-23T16:05:42.564Z,10.29
2023-04-23T16:08:09.572Z,10.26
2023-04-23T16:10:38.038Z,10.25
2023-04-23T16:13:04.749Z,10.22
2023-04-23T16:15:31.510Z,10.16
2023-04-23T16:18:00.029Z,10.06
2023-04-23T16:20:28.677Z,10.05
2023-04-23T16:22:55.869Z,10.13
2023-04-23T16:25:23.308Z,10.10
2023-04-23T16:27:50.310Z,10.01
2023-04-23T16:30:17.029Z,10.05
2023-04-23T16:32:43.730Z,10.06
2023-04-23T16:35:10.632Z,10.03
2023-04-23T16:37:37.291Z,10.20
2023-04-23T16:40:04.707Z,10.16
2023-04-23T16:42:31.455Z,10.19
2023-04-23T16:44:58.169Z,10.08
2023-04-23T16:47:25.016Z,10.09
2023-04-23T16:49:51.762Z,9.94
2023-04-23T16:52:18.395Z,9.88
2023-04-23T16:54:45.123Z,9.85
2023-04-23T16:57:12.033Z,9.90
2023-04-23T16:59:40.774Z,9.85
2023-04-23T17:02:07.920Z,9.86
2023-04-23T17:04:34.807Z,9.92
2023-04-23T17:07:01.952Z,9.83
2023-04-23T17:09:29.354Z,9.89
2023-04-23T17:11:57.944Z,9.86
2023-04-23T17:14:24.765Z,9.88
2023-04-23T17:16:51.378Z,9.96
2023-04-23T17:19:18.496Z,10.05
2023-04-23T17:21:45.172Z,9.95
2023-04-23T17:24:12.420Z,9.44
2023-04-23T17:26:39.841Z,8.78
2023-04-23T17:29:06.996Z,8.50
2023-04-23T17:31:34.847Z,8.37
2023-04-23T17:34:02.760Z,8.20
2023-04-23T17:36:29.848Z,8.30
2023-04-23T17:38:56.637Z,8.28
2023-04-23T17:41:23.313Z,8.33
2023-04-23T17:43:50.634Z,8.43
2023-04-23T17:46:17.343Z,8.33
2023-04-23T17:48:44.912Z,8.33
2023-04-23T17:51:11.973Z,8.26
2023-04-23T17:53:38.665Z,8.26
2023-04-23T17:56:05.548Z,8.35
2023-04-23T17:58:32.195Z,8.34
2023-04-23T18:00:59.122Z,8.34
2023-04-23T18:03:28.105Z,8.30
2023-04-23T18:05:55.151Z,8.32
2023-04-23T18:08:21.883Z,8.41
2023-04-23T18:10:49.124Z,8.43
2023-04-23T18:13:15.919Z,8.37
2023-04-23T18:15:42.620Z,8.34
2023-04-23T18:18:09.413Z,8.34
2023-04-23T18:20:39.029Z,8.36
2023-04-23T18:23:06.714Z,8.44
2023-04-23T18:25:33.665Z,8.38
2023-04-23T18:28:00.364Z,8.44
2023-04-23T18:30:27.196Z,8.43
2023-04-23T18:33:13.092Z,8.48
2023-04-23T18:35:46.024Z,8.55
2023-04-23T18:38:24.661Z,8.44
2023-04-23T18:40:51.501Z,8.49
2023-04-23T18:43:18.791Z,8.59
2023-04-23T18:45:45.501Z,8.47
2023-04-23T18:48:33.370Z,8.54
2023-04-23T18:51:09.208Z,8.56
2023-04-23T18:53:37.300Z,8.56
2023-04-23T18:56:03.989Z,8.53
2023-04-23T18:58:30.868Z,8.51
2023-04-23T19:00:58.021Z,8.44
2023-04-23T19:03:27.254Z,8.47
2023-04-23T19:05:54.325Z,8.42
2023-04-23T19:08:22.636Z,8.36
2023-04-23T19:10:49.314Z,8.35
2023-04-23T19:13:15.933Z,8.36
2023-04-23T19:15:42.555Z,8.30
2023-04-23T19:18:09.173Z,8.33
2023-04-23T19:20:36.113Z,8.32
2023-04-23T19:23:04.941Z,8.29
2023-04-23T19:25:31.656Z,8.24
2023-04-23T19:27:58.282Z,8.27
2023-04-23T19:30:24.908Z,8.21
2023-04-23T19:32:51.626Z,8.17
2023-04-23T19:35:18.386Z,8.19
2023-04-23T19:37:45.255Z,8.14
2023-04-23T19:40:12.493Z,8.16
2023-04-23T19:42:39.371Z,8.18
2023-04-23T19:45:06.392Z,8.15
2023-04-23T19:47:34.955Z,8.19
2023-04-23T19:50:01.588Z,8.21
2023-04-23T19:52:28.820Z,8.15
2023-04-23T19:54:55.608Z,8.16
2023-04-23T19:57:22.336Z,8.13
2023-04-23T19:59:49.306Z,8.16
2023-04-23T20:02:16.852Z,8.09
2023-04-23T20:04:44.108Z,8.11
2023-04-23T20:07:10.772Z,8.16
2023-04-23T20:09:37.350Z,8.14
2023-04-23T20:12:04.410Z,8.09
2023-04-23T20:14:31.098Z,8.03
2023-04-23T20:16:57.993Z,7.95
2023-04-23T20:19:27.761Z,7.93
2023-04-23T20:21:54.428Z,7.92
2023-04-23T20:24:24.180Z,7.88
2023-04-23T20:26:51.040Z,7.88
2023-04-23T20:29:17.721Z,7.85
2023-04-23T20:31:48.837Z,7.88
2023-04-23T20:34:16.626Z,7.80
2023-04-23T20:36:46.821Z,7.81
2023-04-23T20:39:13.420Z,7.78
2023-04-23T20:41:40.146Z,7.71
2023-04-23T20:44:06.795Z,7.70
2023-04-23T20:46:33.531Z,7.68
2023-04-23T20:49:00.906Z,7.70
2023-04-23T20:51:33.203Z,7.58
2023-04-23T20:54:00.466Z,7.56
2023-04-23T20:56:27.906Z,7.48
2023-04-23T20:58:54.501Z,7.47
2023-04-23T21:01:21.631Z,7.40
2023-04-23T21:03:48.820Z,7.41
2023-04-23T21:06:15.795Z,7.37
2023-04-23T21:08:42.976Z,7.38
2023-04-23T21:11:19.649Z,7.34
2023-04-23T21:13:47.158Z,7.33
2023-04-23T21:16:14.398Z,7.29
2023-04-23T21:18:41.469Z,7.28
2023-04-23T21:21:08.304Z,7.20
2023-04-23T21:23:35.928Z,7.22
2023-04-23T21:26:03.206Z,7.15
2023-04-23T21:28:29.857Z,7.12
2023-04-23T21:31:01.476Z,7.09
2023-04-23T21:33:28.136Z,7.13
2023-04-23T21:35:54.805Z,7.11
2023-04-23T21:38:21.472Z,7.04
2023-04-23T21:40:48.352Z,7.00
2023-04-23T21:43:15.107Z,6.96
2023-04-23T21:45:41.767Z,6.91
2023-04-23T21:48:08.579Z,6.89
2023-04-23T21:50:36.120Z,6.91
2023-04-23T21:53:04.134Z,6.92
2023-04-23T21:55:31.791Z,6.91
2023-04-23T21:58:15.878Z,6.85
2023-04-23T22:00:44.725Z,6.84
2023-04-23T22:03:15.433Z,6.78
2023-04-23T22:05:52.943Z,6.81
2023-04-23T22:08:19.603Z,6.80
2023-04-23T22:10:46.204Z,6.76
2023-04-23T22:13:14.323Z,6.76
2023-04-23T22:15:41.342Z,6.72
2023-04-23T22:18:08.126Z,6.69
2023-04-23T22:20:34.876Z,6.69
2023-04-23T22:23:01.736Z,6.61
2023-04-23T22:25:28.325Z,6.65
2023-04-23T22:27:56.374Z,6.68
2023-04-23T22:30:23.047Z,6.66
2023-04-23T22:32:49.761Z,6.64
2023-04-23T22:35:16.765Z,6.60
2023-04-23T22:37:43.511Z,6.69
2023-04-23T22:40:10.565Z,6.72
2023-04-23T22:42:37.735Z,6.73
2023-04-23T22:45:06.338Z,6.79
2023-04-23T22:47:33.201Z,6.79
2023-04-23T22:49:59.957Z,6.83
2023-04-23T22:52:27.014Z,6.88
2023-04-23T22:54:55.017Z,6.88
2023-04-23T22:57:23.578Z,6.88
2023-04-23T22:59:50.357Z,6.94
2023-04-23T23:02:17.490Z,6.90
2023-04-23T23:04:44.294Z,6.98
2023-04-23T23:07:11.275Z,7.00
2023-04-23T23:09:37.874Z,6.98
2023-04-23T23:12:04.911Z,6.93
2023-04-23T23:14:33.335Z,6.85
2023-04-23T23:17:00.045Z,6.88
2023-04-23T23:19:31.012Z,6.80
2023-04-23T23:21:57.710Z,6.79
2023-04-23T23:24:24.503Z,6.74
2023-04-23T23:26:51.336Z,6.58
2023-04-23T23:29:18.098Z,6.61
2023-04-23T23:31:44.912Z,6.57
2023-04-23T23:34:12.032Z,6.53
2023-04-23T23:36:38.690Z,6.49
2023-04-23T23:39:06.643Z,6.47
2023-04-23T23:41:33.803Z,6.37
2023-04-23T23:44:00.552Z,6.37
2023-04-23T23:46:27.283Z,6.30
2023-04-23T23:48:54.418Z,6.27
2023-04-23T23:51:21.157Z,6.26
2023-04-23T23:53:47.764Z,6.24
2023-04-23T23:56:14.452Z,6.21
2023-04-23T23:58:41.075Z,6.21
